sensor_id;sensor_type;location;lat;lon;timestamp;temperature;humidity
21928;DHT22;11128;51.096;17.190;2022-10-26T00:01:26;8.60;1.00
21928;DHT22;11128;51.096;17.190;2022-10-26T00:06:27;8.50;99.90
21928;DHT22;11128;51.096;17.190;2022-10-26T00:11:29;8.60;99.90
21928;DHT22;11128;51.096;17.190;2022-10-26T00:16:30;8.90;1.00
21928;DHT22;11128;51.096;17.190;2022-10-26T00:21:32;8.70;1.00
21928;DHT22;11128;51.096;17.190;2022-10-26T00:26:33;8.60;99.90
21928;DHT22;11128;51.096;17.190;2022-10-26T00:31:34;8.40;1.00
21928;DHT22;11128;51.096;17.190;2022-10-26T00:36:36;8.30;99.90
21928;DHT22;11128;51.096;17.190;2022-10-26T00:41:38;8.30;77.70
21928;DHT22;11128;51.096;17.190;2022-10-26T00:46:40;8.20;99.90
21928;DHT22;11128;51.096;17.190;2022-10-26T00:51:48;8.10;30.60
21928;DHT22;11128;51.096;17.190;2022-10-26T00:56:52;8.10;1.00
21928;DHT22;11128;51.096;17.190;2022-10-26T01:01:54;8.00;1.00
21928;DHT22;11128;51.096;17.190;2022-10-26T01:06:56;7.90;1.00
21928;DHT22;11128;51.096;17.190;2022-10-26T01:11:57;7.90;47.00
21928;DHT22;11128;51.096;17.190;2022-10-26T01:22:35;7.80;1.00
21928;DHT22;11128;51.096;17.190;2022-10-26T01:27:47;7.70;1.00
21928;DHT22;11128;51.096;17.190;2022-10-26T01:43:35;7.50;1.00
21928;DHT22;11128;51.096;17.190;2022-10-26T01:48:39;7.50;2.50
21928;DHT22;11128;51.096;17.190;2022-10-26T01:53:45;7.40;1.00
21928;DHT22;11128;51.096;17.190;2022-10-26T02:15:19;7.20;1.00
21928;DHT22;11128;51.096;17.190;2022-10-26T02:20:32;7.10;96.50
21928;DHT22;11128;51.096;17.190;2022-10-26T02:25:40;7.10;1.00
21928;DHT22;11128;51.096;17.190;2022-10-26T02:30:45;7.00;1.00
21928;DHT22;11128;51.096;17.190;2022-10-26T02:35:51;6.90;1.00
21928;DHT22;11128;51.096;17.190;2022-10-26T02:40:55;6.80;1.00
21928;DHT22;11128;51.096;17.190;2022-10-26T02:46:03;6.80;99.90
21928;DHT22;11128;51.096;17.190;2022-10-26T02:51:45;6.80;1.00
21928;DHT22;11128;51.096;17.190;2022-10-26T02:56:58;6.70;99.90
21928;DHT22;11128;51.096;17.190;2022-10-26T03:02:01;6.80;1.00
21928;DHT22;11128;51.096;17.190;2022-10-26T03:07:03;6.60;99.90
21928;DHT22;11128;51.096;17.190;2022-10-26T03:12:04;6.60;99.90
21928;DHT22;11128;51.096;17.190;2022-10-26T03:17:06;6.60;99.90
21928;DHT22;11128;51.096;17.190;2022-10-26T03:22:08;6.60;27.00
21928;DHT22;11128;51.096;17.190;2022-10-26T03:27:09;6.50;1.00
21928;DHT22;11128;51.096;17.190;2022-10-26T03:32:10;6.50;1.00
21928;DHT22;11128;51.096;17.190;2022-10-26T03:37:12;6.40;1.00
21928;DHT22;11128;51.096;17.190;2022-10-26T03:42:13;6.50;1.00
21928;DHT22;11128;51.096;17.190;2022-10-26T03:47:15;6.50;1.00
21928;DHT22;11128;51.096;17.190;2022-10-26T03:52:16;6.50;1.00
21928;DHT22;11128;51.096;17.190;2022-10-26T03:57:18;6.30;1.00
21928;DHT22;11128;51.096;17.190;2022-10-26T04:02:19;6.30;1.00
21928;DHT22;11128;51.096;17.190;2022-10-26T04:07:21;6.40;99.90
21928;DHT22;11128;51.096;17.190;2022-10-26T04:12:22;6.20;28.00
21928;DHT22;11128;51.096;17.190;2022-10-26T04:17:24;6.20;32.40
21928;DHT22;11128;51.096;17.190;2022-10-26T04:22:25;6.10;1.00
21928;DHT22;11128;51.096;17.190;2022-10-26T04:27:27;6.30;1.00
21928;DHT22;11128;51.096;17.190;2022-10-26T04:32:28;6.20;99.90
21928;DHT22;11128;51.096;17.190;2022-10-26T04:37:30;6.20;99.90
21928;DHT22;11128;51.096;17.190;2022-10-26T04:42:39;6.20;46.40
21928;DHT22;11128;51.096;17.190;2022-10-26T04:47:41;6.00;1.00
21928;DHT22;11128;51.096;17.190;2022-10-26T04:52:49;6.00;1.00
21928;DHT22;11128;51.096;17.190;2022-10-26T04:57:51;6.30;1.00
21928;DHT22;11128;51.096;17.190;2022-10-26T05:02:58;6.30;75.50
21928;DHT22;11128;51.096;17.190;2022-10-26T05:08:00;6.60;1.00
21928;DHT22;11128;51.096;17.190;2022-10-26T05:13:01;5.80;1.00
21928;DHT22;11128;51.096;17.190;2022-10-26T05:18:04;5.80;99.90
21928;DHT22;11128;51.096;17.190;2022-10-26T05:23:06;5.80;1.00
21928;DHT22;11128;51.096;17.190;2022-10-26T05:28:11;5.80;99.90
21928;DHT22;11128;51.096;17.190;2022-10-26T05:33:14;5.80;99.90
21928;DHT22;11128;51.096;17.190;2022-10-26T05:38:16;5.80;99.90
21928;DHT22;11128;51.096;17.190;2022-10-26T05:43:18;5.80;99.90
21928;DHT22;11128;51.096;17.190;2022-10-26T05:48:20;5.80;1.00
21928;DHT22;11128;51.096;17.190;2022-10-26T05:53:23;6.40;1.00
21928;DHT22;11128;51.096;17.190;2022-10-26T05:58:25;5.70;1.00
21928;DHT22;11128;51.096;17.190;2022-10-26T06:08:30;5.70;99.90
21928;DHT22;11128;51.096;17.190;2022-10-26T06:13:32;5.80;1.00
21928;DHT22;11128;51.096;17.190;2022-10-26T06:40:16;6.40;1.00
21928;DHT22;11128;51.096;17.190;2022-10-26T06:45:19;6.70;1.00
21928;DHT22;11128;51.096;17.190;2022-10-26T06:50:35;6.90;1.00
21928;DHT22;11128;51.096;17.190;2022-10-26T06:55:43;7.00;1.00
21928;DHT22;11128;51.096;17.190;2022-10-26T07:00:47;7.30;99.90
21928;DHT22;11128;51.096;17.190;2022-10-26T07:05:50;7.60;99.90
21928;DHT22;11128;51.096;17.190;2022-10-26T07:10:52;8.00;15.40
21928;DHT22;11128;51.096;17.190;2022-10-26T07:15:53;8.40;99.90
21928;DHT22;11128;51.096;17.190;2022-10-26T07:20:54;8.80;1.00
21928;DHT22;11128;51.096;17.190;2022-10-26T07:25:59;9.10;99.90
21928;DHT22;11128;51.096;17.190;2022-10-26T07:31:01;9.50;1.00
21928;DHT22;11128;51.096;17.190;2022-10-26T07:36:02;9.80;90.60
21928;DHT22;11128;51.096;17.190;2022-10-26T07:41:04;10.20;2.70
21928;DHT22;11128;51.096;17.190;2022-10-26T07:46:05;10.60;99.90
21928;DHT22;11128;51.096;17.190;2022-10-26T07:51:08;10.90;99.90
21928;DHT22;11128;51.096;17.190;2022-10-26T07:56:10;11.20;1.00
21928;DHT22;11128;51.096;17.190;2022-10-26T08:01:13;11.60;1.00
21928;DHT22;11128;51.096;17.190;2022-10-26T08:06:15;12.10;1.00
21928;DHT22;11128;51.096;17.190;2022-10-26T08:11:17;12.50;99.90
21928;DHT22;11128;51.096;17.190;2022-10-26T08:16:19;12.90;1.00
21928;DHT22;11128;51.096;17.190;2022-10-26T08:21:20;13.30;1.00
21928;DHT22;11128;51.096;17.190;2022-10-26T08:26:22;13.60;1.00
21928;DHT22;11128;51.096;17.190;2022-10-26T08:31:24;14.00;99.90
21928;DHT22;11128;51.096;17.190;2022-10-26T08:36:26;14.70;99.90
21928;DHT22;11128;51.096;17.190;2022-10-26T08:41:42;15.30;1.00
21928;DHT22;11128;51.096;17.190;2022-10-26T08:46:54;15.70;1.00
21928;DHT22;11128;51.096;17.190;2022-10-26T08:52:00;15.90;1.00
21928;DHT22;11128;51.096;17.190;2022-10-26T09:02:19;16.80;99.90
21928;DHT22;11128;51.096;17.190;2022-10-26T09:28:37;18.50;1.00
21928;DHT22;11128;51.096;17.190;2022-10-26T09:33:41;18.80;1.00
21928;DHT22;11128;51.096;17.190;2022-10-26T09:39:03;19.00;1.00
21928;DHT22;11128;51.096;17.190;2022-10-26T09:44:33;19.00;1.00
21928;DHT22;11128;51.096;17.190;2022-10-26T09:49:57;19.20;1.00
21928;DHT22;11128;51.096;17.190;2022-10-26T09:55:01;19.70;1.00
21928;DHT22;11128;51.096;17.190;2022-10-26T10:00:03;20.20;1.00
21928;DHT22;11128;51.096;17.190;2022-10-26T10:05:33;20.60;1.00
21928;DHT22;11128;51.096;17.190;2022-10-26T10:10:35;21.00;1.00
21928;DHT22;11128;51.096;17.190;2022-10-26T10:15:37;21.20;1.00
21928;DHT22;11128;51.096;17.190;2022-10-26T10:20:38;21.40;1.00
21928;DHT22;11128;51.096;17.190;2022-10-26T10:25:39;21.20;1.00
21928;DHT22;11128;51.096;17.190;2022-10-26T10:30:41;21.30;1.00
21928;DHT22;11128;51.096;17.190;2022-10-26T10:35:51;21.60;1.00
21928;DHT22;11128;51.096;17.190;2022-10-26T10:40:56;21.70;1.00
21928;DHT22;11128;51.096;17.190;2022-10-26T10:45:57;21.80;1.00
21928;DHT22;11128;51.096;17.190;2022-10-26T10:51:05;22.30;1.00
21928;DHT22;11128;51.096;17.190;2022-10-26T11:01:24;21.70;1.00
21928;DHT22;11128;51.096;17.190;2022-10-26T11:06:26;22.50;1.00
21928;DHT22;11128;51.096;17.190;2022-10-26T11:11:32;23.50;1.00
21928;DHT22;11128;51.096;17.190;2022-10-26T11:17:12;23.80;1.00
21928;DHT22;11128;51.096;17.190;2022-10-26T11:22:01;23.20;1.00
21928;DHT22;11128;51.096;17.190;2022-10-26T11:32:24;23.50;1.00
21928;DHT22;11128;51.096;17.190;2022-10-26T11:42:37;23.80;1.00
21928;DHT22;11128;51.096;17.190;2022-10-26T11:47:43;24.00;1.00
21928;DHT22;11128;51.096;17.190;2022-10-26T11:58:07;24.40;1.00
21928;DHT22;11128;51.096;17.190;2022-10-26T12:03:11;24.40;1.00
21928;DHT22;11128;51.096;17.190;2022-10-26T12:13:29;24.80;1.00
21928;DHT22;11128;51.096;17.190;2022-10-26T12:24:23;24.50;1.00
21928;DHT22;11128;51.096;17.190;2022-10-26T12:34:04;24.70;1.00
21928;DHT22;11128;51.096;17.190;2022-10-26T12:39:14;24.90;1.00
21928;DHT22;11128;51.096;17.190;2022-10-26T12:54:56;25.50;1.00
21928;DHT22;11128;51.096;17.190;2022-10-26T13:00:04;25.80;1.00
21928;DHT22;11128;51.096;17.190;2022-10-26T13:10:17;25.80;1.00
21928;DHT22;11128;51.096;17.190;2022-10-26T13:15:30;26.20;1.00
21928;DHT22;11128;51.096;17.190;2022-10-26T13:20:35;26.40;1.00
21928;DHT22;11128;51.096;17.190;2022-10-26T13:25:37;26.30;1.00
21928;DHT22;11128;51.096;17.190;2022-10-26T13:30:42;26.20;1.00
21928;DHT22;11128;51.096;17.190;2022-10-26T13:35:44;25.70;1.00
21928;DHT22;11128;51.096;17.190;2022-10-26T13:40:46;25.50;1.00
21928;DHT22;11128;51.096;17.190;2022-10-26T13:45:59;26.00;1.00
21928;DHT22;11128;51.096;17.190;2022-10-26T13:51:03;25.80;1.00
21928;DHT22;11128;51.096;17.190;2022-10-26T14:01:21;25.60;1.00
21928;DHT22;11128;51.096;17.190;2022-10-26T14:06:25;25.90;1.00
21928;DHT22;11128;51.096;17.190;2022-10-26T14:11:31;25.80;1.00
21928;DHT22;11128;51.096;17.190;2022-10-26T14:16:33;25.50;1.00
21928;DHT22;11128;51.096;17.190;2022-10-26T14:21:38;25.40;1.00
21928;DHT22;11128;51.096;17.190;2022-10-26T14:26:39;24.90;1.00
21928;DHT22;11128;51.096;17.190;2022-10-26T14:31:41;24.70;1.00
21928;DHT22;11128;51.096;17.190;2022-10-26T14:36:52;24.20;1.00
21928;DHT22;11128;51.096;17.190;2022-10-26T14:41:55;23.90;1.00
21928;DHT22;11128;51.096;17.190;2022-10-26T14:46:56;23.30;1.00
21928;DHT22;11128;51.096;17.190;2022-10-26T14:51:59;22.60;1.00
21928;DHT22;11128;51.096;17.190;2022-10-26T14:57:03;22.10;1.00
21928;DHT22;11128;51.096;17.190;2022-10-26T15:02:15;21.40;1.00
21928;DHT22;11128;51.096;17.190;2022-10-26T15:07:19;20.70;1.00
21928;DHT22;11128;51.096;17.190;2022-10-26T15:12:27;19.90;1.00
21928;DHT22;11128;51.096;17.190;2022-10-26T15:17:30;19.20;1.00
21928;DHT22;11128;51.096;17.190;2022-10-26T15:22:41;18.30;1.00
21928;DHT22;11128;51.096;17.190;2022-10-26T15:27:43;17.70;1.00
21928;DHT22;11128;51.096;17.190;2022-10-26T15:32:44;17.20;1.00
21928;DHT22;11128;51.096;17.190;2022-10-26T15:37:45;16.70;99.90
21928;DHT22;11128;51.096;17.190;2022-10-26T15:42:50;16.30;99.90
21928;DHT22;11128;51.096;17.190;2022-10-26T15:47:53;15.90;99.90
21928;DHT22;11128;51.096;17.190;2022-10-26T15:52:58;15.60;1.00
21928;DHT22;11128;51.096;17.190;2022-10-26T15:58:00;15.30;1.00
21928;DHT22;11128;51.096;17.190;2022-10-26T16:03:01;15.00;1.00
21928;DHT22;11128;51.096;17.190;2022-10-26T16:08:02;14.80;1.00
21928;DHT22;11128;51.096;17.190;2022-10-26T16:13:03;14.50;1.00
21928;DHT22;11128;51.096;17.190;2022-10-26T16:18:04;14.10;99.90
21928;DHT22;11128;51.096;17.190;2022-10-26T16:23:05;13.90;99.90
21928;DHT22;11128;51.096;17.190;2022-10-26T16:28:08;13.70;1.00
21928;DHT22;11128;51.096;17.190;2022-10-26T16:33:09;13.50;1.00
21928;DHT22;11128;51.096;17.190;2022-10-26T16:38:10;13.30;1.00
21928;DHT22;11128;51.096;17.190;2022-10-26T16:43:11;13.10;99.90
21928;DHT22;11128;51.096;17.190;2022-10-26T16:48:12;12.90;99.90
21928;DHT22;11128;51.096;17.190;2022-10-26T16:53:15;12.70;99.90
21928;DHT22;11128;51.096;17.190;2022-10-26T16:58:17;12.60;99.90
21928;DHT22;11128;51.096;17.190;2022-10-26T17:03:17;12.40;1.00
21928;DHT22;11128;51.096;17.190;2022-10-26T17:08:18;12.30;1.00
21928;DHT22;11128;51.096;17.190;2022-10-26T17:13:19;12.20;1.00
21928;DHT22;11128;51.096;17.190;2022-10-26T17:18:21;12.10;1.00
21928;DHT22;11128;51.096;17.190;2022-10-26T17:23:22;12.10;1.00
21928;DHT22;11128;51.096;17.190;2022-10-26T17:28:23;11.90;32.90
21928;DHT22;11128;51.096;17.190;2022-10-26T17:33:24;11.80;1.00
21928;DHT22;11128;51.096;17.190;2022-10-26T17:38:25;11.70;99.90
21928;DHT22;11128;51.096;17.190;2022-10-26T17:43:28;11.70;99.90
21928;DHT22;11128;51.096;17.190;2022-10-26T17:48:29;11.60;99.90
21928;DHT22;11128;51.096;17.190;2022-10-26T17:53:30;11.50;1.00
21928;DHT22;11128;51.096;17.190;2022-10-26T17:58:32;11.40;1.00
21928;DHT22;11128;51.096;17.190;2022-10-26T18:03:33;11.30;99.90
21928;DHT22;11128;51.096;17.190;2022-10-26T18:08:35;11.30;99.90
21928;DHT22;11128;51.096;17.190;2022-10-26T18:13:37;11.10;99.90
21928;DHT22;11128;51.096;17.190;2022-10-26T18:18:38;11.00;99.90
21928;DHT22;11128;51.096;17.190;2022-10-26T18:23:39;10.90;99.90
21928;DHT22;11128;51.096;17.190;2022-10-26T18:28:40;10.70;1.00
21928;DHT22;11128;51.096;17.190;2022-10-26T18:33:41;10.60;1.00
21928;DHT22;11128;51.096;17.190;2022-10-26T18:38:42;10.50;99.90
21928;DHT22;11128;51.096;17.190;2022-10-26T18:43:45;10.40;99.90
21928;DHT22;11128;51.096;17.190;2022-10-26T18:48:46;10.30;99.90
21928;DHT22;11128;51.096;17.190;2022-10-26T18:53:48;10.20;1.00
21928;DHT22;11128;51.096;17.190;2022-10-26T18:58:54;10.10;1.00
21928;DHT22;11128;51.096;17.190;2022-10-26T19:08:57;9.90;1.00
21928;DHT22;11128;51.096;17.190;2022-10-26T19:13:58;9.90;1.00
21928;DHT22;11128;51.096;17.190;2022-10-26T19:19:00;9.80;99.90
21928;DHT22;11128;51.096;17.190;2022-10-26T19:24:01;9.70;1.00
21928;DHT22;11128;51.096;17.190;2022-10-26T19:29:03;9.70;99.90
21928;DHT22;11128;51.096;17.190;2022-10-26T19:34:05;9.60;99.90
21928;DHT22;11128;51.096;17.190;2022-10-26T19:39:06;9.50;99.90
21928;DHT22;11128;51.096;17.190;2022-10-26T19:44:08;9.40;99.90
21928;DHT22;11128;51.096;17.190;2022-10-26T19:49:11;9.40;1.00
21928;DHT22;11128;51.096;17.190;2022-10-26T19:54:17;9.30;99.90
21928;DHT22;11128;51.096;17.190;2022-10-26T19:59:18;9.20;1.00
21928;DHT22;11128;51.096;17.190;2022-10-26T20:04:19;9.10;1.00
21928;DHT22;11128;51.096;17.190;2022-10-26T20:09:20;9.10;99.90
21928;DHT22;11128;51.096;17.190;2022-10-26T20:14:21;9.10;1.00
21928;DHT22;11128;51.096;17.190;2022-10-26T20:19:22;9.00;1.00
21928;DHT22;11128;51.096;17.190;2022-10-26T20:24:23;8.90;90.40
21928;DHT22;11128;51.096;17.190;2022-10-26T20:29:24;8.80;64.90
21928;DHT22;11128;51.096;17.190;2022-10-26T20:34:25;8.80;1.00
21928;DHT22;11128;51.096;17.190;2022-10-26T20:39:26;8.70;1.00
21928;DHT22;11128;51.096;17.190;2022-10-26T20:44:29;8.60;1.00
21928;DHT22;11128;51.096;17.190;2022-10-26T20:49:31;8.50;99.90
21928;DHT22;11128;51.096;17.190;2022-10-26T20:54:36;8.50;1.00
21928;DHT22;11128;51.096;17.190;2022-10-26T20:59:41;8.40;1.00
21928;DHT22;11128;51.096;17.190;2022-10-26T21:04:43;8.30;99.90
21928;DHT22;11128;51.096;17.190;2022-10-26T21:09:44;8.30;1.00
21928;DHT22;11128;51.096;17.190;2022-10-26T21:14:45;8.20;1.00
21928;DHT22;11128;51.096;17.190;2022-10-26T21:19:45;8.20;99.90
21928;DHT22;11128;51.096;17.190;2022-10-26T21:24:47;8.10;76.60
21928;DHT22;11128;51.096;17.190;2022-10-26T21:29:48;8.10;99.90
21928;DHT22;11128;51.096;17.190;2022-10-26T21:34:49;8.40;99.90
21928;DHT22;11128;51.096;17.190;2022-10-26T21:39:50;8.10;1.00
21928;DHT22;11128;51.096;17.190;2022-10-26T21:44:51;8.00;1.00
21928;DHT22;11128;51.096;17.190;2022-10-26T21:49:51;8.00;1.00
21928;DHT22;11128;51.096;17.190;2022-10-26T21:54:52;8.00;1.00
21928;DHT22;11128;51.096;17.190;2022-10-26T21:59:54;7.90;1.00
21928;DHT22;11128;51.096;17.190;2022-10-26T22:04:55;7.80;1.00
21928;DHT22;11128;51.096;17.190;2022-10-26T22:09:56;7.80;99.90
21928;DHT22;11128;51.096;17.190;2022-10-26T22:14:57;7.80;1.00
21928;DHT22;11128;51.096;17.190;2022-10-26T22:19:58;7.90;99.90
21928;DHT22;11128;51.096;17.190;2022-10-26T22:24:59;7.90;1.00
21928;DHT22;11128;51.096;17.190;2022-10-26T22:30:00;7.90;99.90
21928;DHT22;11128;51.096;17.190;2022-10-26T22:35:01;7.90;1.00
21928;DHT22;11128;51.096;17.190;2022-10-26T22:40:02;7.80;1.00
21928;DHT22;11128;51.096;17.190;2022-10-26T22:45:03;7.70;1.00
21928;DHT22;11128;51.096;17.190;2022-10-26T22:50:04;7.70;1.00
21928;DHT22;11128;51.096;17.190;2022-10-26T22:55:05;7.70;1.00
21928;DHT22;11128;51.096;17.190;2022-10-26T23:00:06;7.70;99.90
21928;DHT22;11128;51.096;17.190;2022-10-26T23:05:07;7.70;1.00
21928;DHT22;11128;51.096;17.190;2022-10-26T23:10:08;7.80;1.00
21928;DHT22;11128;51.096;17.190;2022-10-26T23:15:09;7.80;1.00
21928;DHT22;11128;51.096;17.190;2022-10-26T23:20:10;7.90;1.00
21928;DHT22;11128;51.096;17.190;2022-10-26T23:25:11;8.00;1.00
21928;DHT22;11128;51.096;17.190;2022-10-26T23:30:12;8.00;99.90
21928;DHT22;11128;51.096;17.190;2022-10-26T23:35:13;8.10;1.00
21928;DHT22;11128;51.096;17.190;2022-10-26T23:40:14;8.10;99.90
21928;DHT22;11128;51.096;17.190;2022-10-26T23:45:15;8.20;92.00
21928;DHT22;11128;51.096;17.190;2022-10-26T23:50:16;8.20;99.90
21928;DHT22;11128;51.096;17.190;2022-10-26T23:55:17;8.20;1.00
